South New Berlin, NY (13843)

3:10 PM EDT on October 17, 2019 (GMT -0400)
New Berlin | | Change Station

Elev 1129 ft 42.52 °N, 75.40 °W | Updated 6 seconds ago

Rain
Rain
46.8 °F
Feels Like 47 °F
N
2
Wind Variable Wind from ESE
Gusts 2.2 mph

Today
High -- | Low -- °F
--% Chance of Precip.
Yesterday
High -- | Low -- °F
Precip. -- in
Pressure 29.43 in
Visibility 7.0 miles
Clouds Overcast 1000 ft
Windchill 47 °F
Dew Point 45 °F
Humidity 93%
Rainfall 0.48 in
Snow Depth Not available.
7:16 AM 6:16 PM
Waning Gibbous, 86% visible
METAR KBGM 171853Z 30016G28KT 7SM -RA OVC010 06/04 A2941 RMK AO2 PK WND 29028/1850 SLP966 P0000 T00610044
Pressure 29.43 in
Visibility 7.0 miles
Clouds Overcast 1000 ft
Windchill 47 °F
Dew Point 45 °F
Humidity 93%
Rainfall 0.48 in
Snow Depth Not available.
7:16 AM 6:16 PM
Waning Gibbous, 86% visible
METAR KBGM 171853Z 30016G28KT 7SM -RA OVC010 06/04 A2941 RMK AO2 PK WND 29028/1850 SLP966 P0000 T00610044

Get Severe Weather Alerts

Thanks for signing up!

Be on the lookout for a verification email in your inbox.

You'll start receiving the daily forecast at 6 AM.

×

10-Day Weather Forecast

Almanac

Astronomy

Oct. 17, 2019 Rise Set
Actual Time
Civil Twilight
Nautical Twilight
Astronomical Twilight
Moon
Length of Visible Light
Length of Day
Tomorrow will be .
, % of the Moon is Illuminated

Today's Extremes

State Highs State Lows

Community

WunderPhotos

Category 6

Welcome to Category 6. This is the collective home for Weather Underground's featured writeups by Dr. Jeff Masters (right), Bob Henson (left), Chris Burt, and other regular contributors.

Nearby

Air Quality

  Air Quality AQ Index Pollutant
Not available.

Snow Depth

Station Depth Elevation

Earthquake Activity

City Distance Mag. Time & Date
Minimum magnitude displayed is 2.5.

Coastal Water Temperatures

Place Temperature

Stations

Nearby Weather Stations

Station Location Temp. Windchill Dew Point Humidity Wind Precip. Elev Updated Type
                   

Watches & Warnings

There are currently no watches in effect.